createdAt,value
2022-11-02T00:01:57.996Z,10.48
2022-11-02T00:04:25.631Z,8.63
2022-11-02T00:06:52.921Z,8.93
2022-11-02T00:09:20.181Z,13.18
2022-11-02T00:11:47.479Z,11.95
2022-11-02T00:14:14.715Z,12.52
2022-11-02T00:16:42.345Z,13.18
2022-11-02T00:19:10.164Z,15.95
2022-11-02T00:21:38.386Z,10.68
2022-11-02T00:24:06.635Z,18.20
2022-11-02T00:26:35.361Z,15.43
2022-11-02T00:29:04.521Z,16.73
2022-11-02T00:31:32.192Z,20.08
2022-11-02T00:33:59.511Z,11.88
2022-11-02T00:36:27.926Z,13.82
2022-11-02T00:38:55.258Z,17.25
2022-11-02T00:41:22.519Z,14.05
2022-11-02T00:43:49.784Z,15.05
2022-11-02T00:46:17.115Z,16.88
2022-11-02T00:48:44.386Z,17.77
2022-11-02T00:51:12.773Z,16.90
2022-11-02T00:53:41.639Z,17.48
2022-11-02T00:56:09.002Z,17.08
2022-11-02T00:58:36.626Z,14.65
2022-11-02T01:01:08.764Z,13.15
2022-11-02T01:03:36.901Z,14.30
2022-11-02T01:06:15.554Z,13.50
2022-11-02T01:08:42.915Z,16.42
2022-11-02T01:11:24.204Z,13.95
2022-11-02T01:13:52.324Z,15.68
2022-11-02T01:16:20.520Z,13.35
2022-11-02T01:18:53.116Z,16.95
2022-11-02T01:21:21.557Z,15.15
2022-11-02T01:23:49.169Z,15.85
2022-11-02T01:26:17.087Z,11.07
2022-11-02T01:28:44.500Z,10.25
2022-11-02T01:31:13.581Z,11.32
2022-11-02T01:33:45.723Z,11.23
2022-11-02T01:36:15.556Z,12.80
2022-11-02T01:38:42.992Z,12.45
2022-11-02T01:41:12.118Z,9.45
2022-11-02T01:43:42.891Z,7.55
2022-11-02T01:46:13.250Z,7.55
2022-11-02T01:48:43.486Z,9.75
2022-11-02T01:51:17.407Z,10.65
2022-11-02T01:53:47.775Z,11.43
2022-11-02T01:56:17.962Z,13.80
2022-11-02T01:58:52.058Z,13.40
2022-11-02T02:01:19.543Z,14.95
2022-11-02T02:03:48.450Z,10.60
2022-11-02T02:06:17.985Z,9.85
2022-11-02T02:08:48.380Z,15.43
2022-11-02T02:11:36.418Z,14.55
2022-11-02T02:14:12.080Z,11.00
2022-11-02T02:16:51.975Z,12.38
2022-11-02T02:19:30.919Z,7.35
2022-11-02T02:22:17.338Z,9.27
2022-11-02T02:24:44.647Z,10.25
2022-11-02T02:27:29.052Z,10.75
2022-11-02T02:30:11.574Z,9.35
2022-11-02T02:32:59.495Z,10.68
2022-11-02T02:35:46.699Z,10.25
2022-11-02T02:38:30.587Z,9.20
2022-11-02T02:41:18.662Z,8.93
2022-11-02T02:43:56.169Z,9.77
2022-11-02T02:46:29.601Z,7.00
2022-11-02T02:48:58.381Z,7.32
2022-11-02T02:51:32.417Z,8.55
2022-11-02T02:54:23.245Z,12.38
2022-11-02T02:57:03.674Z,7.22
2022-11-02T02:59:42.371Z,10.52
2022-11-02T03:02:25.713Z,8.05
2022-11-02T03:04:53.690Z,7.65
2022-11-02T03:07:31.067Z,9.15
2022-11-02T03:10:28.175Z,9.55
2022-11-02T03:13:10.086Z,11.80
2022-11-02T03:15:42.204Z,10.98
2022-11-02T03:18:31.858Z,10.13
2022-11-02T03:21:26.799Z,11.32
2022-11-02T03:24:00.170Z,11.07
2022-11-02T03:26:43.312Z,8.02
2022-11-02T03:29:16.324Z,8.13
2022-11-02T03:31:57.071Z,10.10
2022-11-02T03:34:43.924Z,9.55
2022-11-02T03:37:14.310Z,8.27
2022-11-02T03:39:47.143Z,9.77
2022-11-02T03:42:19.772Z,10.77
2022-11-02T03:44:56.902Z,8.85
2022-11-02T03:47:26.342Z,10.25
2022-11-02T03:49:56.686Z,11.52
2022-11-02T03:52:28.831Z,10.30
2022-11-02T03:55:06.152Z,13.65
2022-11-02T03:57:44.411Z,9.30
2022-11-02T04:00:17.175Z,11.02
2022-11-02T04:02:59.322Z,18.15
2022-11-02T04:05:34.225Z,6.68
2022-11-02T04:08:20.993Z,7.07
2022-11-02T04:11:11.283Z,8.40
2022-11-02T04:13:58.368Z,7.32
2022-11-02T04:16:28.501Z,4.88
2022-11-02T04:19:16.888Z,7.20
2022-11-02T04:22:05.490Z,6.70
2022-11-02T04:24:53.911Z,6.60
2022-11-02T04:27:21.509Z,7.78
2022-11-02T04:29:50.917Z,7.28
2022-11-02T04:32:39.257Z,8.73
2022-11-02T04:35:10.680Z,7.82
2022-11-02T04:38:01.723Z,7.57
2022-11-02T04:40:33.479Z,8.02
2022-11-02T04:43:01.943Z,8.13
2022-11-02T04:45:29.279Z,7.47
2022-11-02T04:48:01.460Z,6.93
2022-11-02T04:50:29.599Z,7.40
2022-11-02T04:53:02.549Z,6.88
2022-11-02T04:55:31.770Z,10.00
2022-11-02T04:58:00.216Z,6.82
2022-11-02T05:00:27.699Z,8.02
2022-11-02T05:02:55.341Z,9.30
2022-11-02T05:05:24.514Z,10.80
2022-11-02T05:07:54.916Z,8.05
2022-11-02T05:10:23.329Z,8.02
2022-11-02T05:12:59.251Z,8.10
2022-11-02T05:15:30.606Z,6.78
2022-11-02T05:17:59.697Z,7.10
2022-11-02T05:20:29.827Z,8.93
2022-11-02T05:22:58.303Z,7.63
2022-11-02T05:25:25.904Z,7.88
2022-11-02T05:27:53.435Z,9.45
2022-11-02T05:30:20.820Z,7.45
2022-11-02T05:32:48.558Z,9.05
2022-11-02T05:35:16.361Z,6.65
2022-11-02T05:37:45.105Z,7.00
2022-11-02T05:40:12.788Z,7.10
2022-11-02T05:42:40.718Z,6.57
2022-11-02T05:45:08.420Z,7.07
2022-11-02T05:47:35.739Z,8.82
2022-11-02T05:50:03.319Z,7.90
2022-11-02T05:52:30.622Z,9.05
2022-11-02T05:54:57.914Z,8.13
2022-11-02T05:57:25.228Z,7.88
2022-11-02T05:59:52.557Z,9.15
2022-11-02T06:02:23.316Z,8.02
2022-11-02T06:04:53.017Z,9.55
2022-11-02T06:07:20.318Z,8.65
2022-11-02T06:09:47.672Z,10.63
2022-11-02T06:12:15.030Z,6.30
2022-11-02T06:14:42.273Z,7.20
2022-11-02T06:17:09.741Z,9.38
2022-11-02T06:19:37.032Z,8.75
2022-11-02T06:22:04.416Z,12.35
2022-11-02T06:24:31.667Z,12.18
2022-11-02T06:26:59.034Z,14.57
2022-11-02T06:29:26.327Z,9.98
2022-11-02T06:31:53.670Z,10.55
2022-11-02T06:34:20.948Z,13.82
2022-11-02T06:36:48.199Z,13.65
2022-11-02T06:39:15.529Z,11.70
2022-11-02T06:41:42.938Z,8.23
2022-11-02T06:44:10.186Z,9.20
2022-11-02T06:46:37.638Z,10.82
2022-11-02T06:49:05.125Z,11.25
2022-11-02T06:51:32.437Z,10.07
2022-11-02T06:54:03.285Z,10.23
2022-11-02T06:56:33.299Z,15.05
2022-11-02T06:59:00.686Z,10.27
2022-11-02T07:01:28.147Z,8.82
2022-11-02T07:03:55.593Z,9.27
2022-11-02T07:06:23.015Z,12.75
2022-11-02T07:08:50.383Z,9.63
2022-11-02T07:11:17.689Z,8.48
2022-11-02T07:13:45.349Z,7.05
2022-11-02T07:16:12.744Z,7.95
2022-11-02T07:18:41.318Z,11.27
2022-11-02T07:21:11.309Z,9.95
2022-11-02T07:23:38.839Z,8.75
2022-11-02T07:26:06.183Z,8.68
2022-11-02T07:28:33.585Z,9.23
2022-11-02T07:31:00.890Z,9.80
2022-11-02T07:33:28.219Z,8.85
2022-11-02T07:35:55.541Z,10.20
2022-11-02T07:38:22.874Z,12.30
2022-11-02T07:40:53.183Z,12.35
2022-11-02T07:43:20.594Z,9.65
2022-11-02T07:45:55.181Z,10.82
2022-11-02T07:48:22.489Z,9.13
2022-11-02T07:50:49.810Z,9.40
2022-11-02T07:53:17.114Z,10.82
2022-11-02T07:55:44.470Z,9.43
2022-11-02T07:58:14.888Z,11.82
2022-11-02T08:00:42.881Z,10.65
2022-11-02T08:03:12.132Z,11.18
2022-11-02T08:05:41.945Z,10.40
2022-11-02T08:08:20.702Z,8.15
2022-11-02T08:10:50.514Z,8.25
2022-11-02T08:13:20.552Z,7.45
2022-11-02T08:15:54.240Z,10.88
2022-11-02T08:18:26.402Z,9.48
2022-11-02T08:20:57.513Z,8.70
2022-11-02T08:23:25.766Z,9.75
2022-11-02T08:25:54.531Z,9.50
2022-11-02T08:28:27.867Z,10.15
2022-11-02T08:30:55.272Z,10.80
2022-11-02T08:33:22.553Z,10.13
2022-11-02T08:35:50.299Z,12.43
2022-11-02T08:38:18.391Z,11.68
2022-11-02T08:40:45.799Z,12.05
2022-11-02T08:43:14.552Z,14.20
2022-11-02T08:48:32.303Z,13.73
2022-11-02T08:50:59.653Z,15.38
2022-11-02T08:53:27.074Z,10.38
2022-11-02T08:55:58.068Z,10.88
2022-11-02T08:58:25.574Z,11.35
2022-11-02T09:00:53.648Z,11.05
2022-11-02T09:03:26.496Z,10.90
2022-11-02T09:06:02.417Z,13.80
2022-11-02T09:08:30.266Z,12.30
2022-11-02T09:11:00.943Z,10.77
2022-11-02T09:13:28.849Z,12.32
2022-11-02T09:15:58.223Z,11.27
2022-11-02T09:18:25.651Z,10.18
2022-11-02T09:20:53.103Z,12.57
2022-11-02T09:23:21.145Z,18.75
2022-11-02T09:25:49.694Z,12.02
2022-11-02T09:28:17.157Z,10.32
2022-11-02T09:30:44.601Z,10.40
2022-11-02T09:33:13.502Z,12.02
2022-11-02T09:35:43.677Z,11.23
2022-11-02T09:38:11.490Z,14.63
2022-11-02T09:40:59.799Z,13.02
2022-11-02T09:43:33.019Z,13.48
2022-11-02T09:46:06.868Z,15.30
2022-11-02T09:48:48.290Z,25.13
2022-11-02T09:51:20.246Z,17.15
2022-11-02T09:53:51.167Z,17.45
2022-11-02T09:56:20.008Z,19.55
2022-11-02T09:59:10.276Z,17.92
2022-11-02T10:01:58.061Z,18.85
2022-11-02T10:04:43.362Z,19.90
2022-11-02T10:07:38.276Z,20.40
2022-11-02T10:10:14.856Z,18.13
2022-11-02T10:13:14.471Z,17.75
2022-11-02T10:15:47.863Z,19.52
2022-11-02T10:18:26.384Z,19.40
2022-11-02T10:20:58.723Z,22.65
2022-11-02T10:23:41.307Z,20.58
2022-11-02T10:26:19.112Z,24.67
2022-11-02T10:28:56.546Z,21.08
2022-11-02T10:31:27.270Z,22.52
2022-11-02T10:33:58.176Z,21.20
2022-11-02T10:36:50.435Z,19.42
2022-11-02T10:39:29.971Z,22.42
2022-11-02T10:42:11.893Z,23.52
2022-11-02T10:45:01.555Z,25.50
2022-11-02T10:47:36.661Z,20.67
2022-11-02T10:50:08.039Z,21.45
2022-11-02T10:52:42.761Z,26.85
2022-11-02T10:55:27.631Z,22.90
2022-11-02T10:57:58.715Z,22.13
2022-11-02T11:00:33.494Z,19.15
2022-11-02T11:03:08.776Z,23.05
2022-11-02T11:05:43.163Z,32.58
2022-11-02T11:08:38.846Z,28.55
2022-11-02T11:11:33.316Z,23.90
2022-11-02T11:19:52.316Z,23.17
2022-11-02T11:22:39.788Z,26.85
2022-11-02T11:25:13.320Z,21.10
2022-11-02T11:27:55.954Z,19.15
2022-11-02T11:33:25.904Z,21.58
2022-11-02T11:35:53.358Z,23.48
2022-11-02T11:38:28.423Z,21.73
2022-11-02T11:40:58.911Z,26.45
2022-11-02T11:43:35.014Z,24.08
2022-11-02T11:46:07.335Z,24.05
2022-11-02T11:48:39.675Z,25.17
2022-11-02T11:51:28.748Z,21.50
2022-11-02T11:54:06.434Z,19.30
2022-11-02T11:56:34.684Z,22.58
2022-11-02T11:59:02.058Z,19.88
2022-11-02T12:01:40.192Z,19.95
2022-11-02T12:04:08.530Z,26.50
2022-11-02T12:06:59.679Z,27.13
2022-11-02T12:09:34.716Z,21.35
2022-11-02T12:12:11.903Z,23.50
2022-11-02T12:15:01.401Z,25.42
2022-11-02T12:17:43.607Z,22.90
2022-11-02T12:20:10.886Z,20.80
2022-11-02T12:23:13.532Z,22.73
2022-11-02T12:25:55.622Z,23.27
2022-11-02T12:28:37.554Z,23.73
2022-11-02T12:31:30.213Z,22.60
2022-11-02T12:34:06.686Z,28.13
2022-11-02T12:37:01.683Z,29.08
2022-11-02T12:39:55.401Z,21.75
2022-11-02T12:42:27.374Z,27.90
2022-11-02T12:45:09.789Z,27.67
2022-11-02T12:47:59.217Z,30.10
2022-11-02T12:50:55.586Z,25.48
2022-11-02T12:53:40.747Z,25.83
2022-11-02T12:56:13.899Z,26.88
2022-11-02T12:58:41.872Z,25.83
2022-11-02T13:01:35.424Z,25.85
2022-11-02T13:04:38.580Z,26.73
2022-11-02T13:07:14.873Z,36.15
2022-11-02T13:09:59.224Z,32.25
2022-11-02T13:12:27.696Z,28.73
2022-11-02T13:14:57.869Z,24.80
2022-11-02T13:17:41.945Z,30.75
2022-11-02T13:20:39.954Z,32.60
2022-11-02T13:23:14.690Z,36.38
2022-11-02T13:25:47.714Z,29.92
2022-11-02T13:28:18.659Z,31.95
2022-11-02T13:30:47.794Z,29.55
2022-11-02T13:33:20.298Z,32.78
2022-11-02T13:35:50.254Z,23.05
2022-11-02T13:38:31.381Z,27.88
2022-11-02T13:41:10.783Z,23.70
2022-11-02T13:43:56.290Z,25.27
2022-11-02T13:46:43.925Z,21.27
2022-11-02T13:49:20.206Z,24.02
2022-11-02T13:51:53.135Z,25.50
2022-11-02T13:54:41.791Z,24.35
2022-11-02T13:57:21.259Z,19.30
2022-11-02T13:59:48.746Z,20.77
2022-11-02T14:02:19.383Z,20.58
2022-11-02T14:04:48.613Z,20.00
2022-11-02T14:07:42.024Z,18.35
2022-11-02T14:10:19.867Z,16.95
2022-11-02T14:12:49.380Z,21.55
2022-11-02T14:15:16.620Z,17.83
2022-11-02T14:17:53.203Z,23.98
2022-11-02T14:20:39.122Z,17.77
2022-11-02T14:23:09.471Z,19.90
2022-11-02T14:25:46.044Z,20.88
2022-11-02T14:28:25.814Z,19.55
2022-11-02T14:31:19.201Z,17.75
2022-11-02T14:34:01.375Z,21.42
2022-11-02T14:36:40.554Z,17.17
2022-11-02T14:39:28.945Z,17.98
2022-11-02T14:42:15.320Z,21.23
2022-11-02T14:45:02.313Z,21.33
2022-11-02T14:47:32.707Z,23.25
2022-11-02T14:50:02.868Z,21.15
2022-11-02T14:52:33.111Z,21.08
2022-11-02T14:55:02.798Z,17.15
2022-11-02T14:57:33.307Z,16.75
2022-11-02T15:00:05.960Z,18.77
2022-11-02T15:02:42.199Z,17.55
2022-11-02T15:05:23.843Z,17.63
2022-11-02T15:07:58.159Z,19.30
2022-11-02T15:10:31.301Z,18.55
2022-11-02T15:15:51.083Z,18.60
2022-11-02T15:18:35.766Z,16.15
2022-11-02T15:21:15.525Z,15.73
2022-11-02T15:24:09.802Z,18.48
2022-11-02T15:26:46.275Z,18.92
2022-11-02T15:29:41.126Z,22.67
2022-11-02T15:32:19.732Z,23.20
2022-11-02T15:34:52.243Z,22.50
2022-11-02T15:37:23.518Z,19.75
2022-11-02T15:39:59.103Z,24.80
2022-11-02T15:42:45.213Z,21.13
2022-11-02T15:48:27.167Z,24.88
2022-11-02T15:51:05.559Z,25.33
2022-11-02T15:53:38.938Z,25.52
2022-11-02T15:56:26.683Z,25.98
2022-11-02T15:58:56.950Z,25.80
2022-11-02T16:01:26.709Z,23.88
2022-11-02T16:04:21.411Z,26.30
2022-11-02T16:06:49.583Z,24.63
2022-11-02T16:09:33.438Z,25.92
2022-11-02T16:12:11.906Z,25.10
2022-11-02T16:14:40.694Z,28.88
2022-11-02T16:17:23.255Z,32.17
2022-11-02T16:19:51.129Z,29.20
2022-11-02T16:22:26.872Z,30.20
2022-11-02T16:24:54.904Z,27.58
2022-11-02T16:27:23.304Z,23.27
2022-11-02T16:29:51.019Z,25.55
2022-11-02T16:32:18.472Z,23.58
2022-11-02T16:34:46.221Z,25.67
2022-11-02T16:37:15.152Z,25.85
2022-11-02T16:39:46.516Z,25.05
2022-11-02T16:42:23.853Z,24.55
2022-11-02T16:44:59.342Z,26.48
2022-11-02T16:47:36.447Z,24.70
2022-11-02T16:50:17.677Z,18.95
2022-11-02T16:53:02.614Z,22.00
2022-11-02T16:55:51.713Z,18.88
2022-11-02T16:58:24.165Z,18.15
2022-11-02T17:00:54.493Z,21.20
2022-11-02T17:03:26.127Z,81.30
2022-11-02T17:05:54.320Z,31.05
2022-11-02T17:08:31.795Z,20.67
2022-11-02T17:11:01.665Z,17.95
2022-11-02T17:13:32.875Z,20.10
2022-11-02T17:16:05.807Z,18.58
2022-11-02T17:18:33.155Z,19.60
2022-11-02T17:21:27.915Z,18.63
2022-11-02T17:23:57.528Z,15.50
2022-11-02T17:26:31.404Z,16.85
2022-11-02T17:29:22.990Z,19.92
2022-11-02T17:32:00.516Z,17.95
2022-11-02T17:34:28.336Z,18.58
2022-11-02T17:36:55.812Z,18.27
2022-11-02T17:39:23.229Z,21.73
2022-11-02T17:42:13.581Z,20.75
2022-11-02T17:44:41.635Z,16.90
2022-11-02T17:47:13.980Z,14.75
2022-11-02T17:49:41.390Z,19.75
2022-11-02T17:52:13.935Z,20.02
2022-11-02T17:54:41.332Z,15.38
2022-11-02T17:57:15.679Z,16.45
2022-11-02T17:59:42.969Z,24.63
2022-11-02T18:02:15.297Z,19.65
2022-11-02T18:07:12.236Z,17.75
2022-11-02T18:09:39.890Z,19.50
2022-11-02T18:12:09.219Z,19.55
2022-11-02T18:14:36.762Z,22.17
2022-11-02T18:17:04.086Z,17.92
2022-11-02T18:19:33.276Z,18.60
2022-11-02T18:22:01.465Z,19.92
2022-11-02T18:24:28.784Z,19.55
2022-11-02T18:26:56.184Z,18.23
2022-11-02T18:29:23.563Z,22.38
2022-11-02T18:31:50.889Z,22.10
2022-11-02T18:34:18.211Z,18.08
2022-11-02T18:36:45.580Z,18.85
2022-11-02T18:39:13.266Z,22.30
2022-11-02T18:41:42.439Z,32.22
2022-11-02T18:44:15.008Z,20.73
2022-11-02T18:46:43.150Z,18.83
2022-11-02T18:49:10.574Z,20.65
2022-11-02T18:51:37.870Z,24.00
2022-11-02T18:54:06.454Z,17.63
2022-11-02T18:56:33.960Z,18.83
2022-11-02T18:59:01.903Z,18.73
2022-11-02T19:01:29.353Z,23.83
2022-11-02T19:04:00.500Z,24.98
2022-11-02T19:06:48.807Z,18.60
2022-11-02T19:09:20.642Z,16.88
2022-11-02T19:11:48.515Z,17.95
2022-11-02T19:14:17.273Z,19.45
2022-11-02T19:16:44.718Z,16.45
2022-11-02T19:19:12.129Z,19.77
2022-11-02T19:21:39.623Z,16.92
2022-11-02T19:24:07.863Z,20.63
2022-11-02T19:26:36.165Z,35.58
2022-11-02T19:29:06.361Z,22.25
2022-11-02T19:31:35.483Z,26.50
2022-11-02T19:34:03.442Z,20.73
2022-11-02T19:36:31.680Z,20.10
2022-11-02T19:39:00.191Z,26.30
2022-11-02T19:41:27.718Z,19.60
2022-11-02T19:43:55.313Z,26.90
2022-11-02T19:46:23.296Z,25.20
2022-11-02T19:48:50.857Z,18.35
2022-11-02T19:51:23.214Z,19.48
2022-11-02T19:53:52.773Z,24.57
2022-11-02T19:56:21.755Z,19.48
2022-11-02T19:58:51.337Z,18.50
2022-11-02T20:01:26.869Z,22.80
2022-11-02T20:03:55.669Z,27.33
2022-11-02T20:06:28.301Z,20.90
2022-11-02T20:08:57.504Z,18.90
2022-11-02T20:11:29.377Z,17.88
2022-11-02T20:14:00.482Z,17.95
2022-11-02T20:16:28.387Z,17.17
2022-11-02T20:18:56.498Z,26.08
2022-11-02T20:21:31.558Z,21.55
2022-11-02T20:24:01.777Z,21.42
2022-11-02T20:26:35.429Z,21.48
2022-11-02T20:29:04.557Z,18.50
2022-11-02T20:31:37.763Z,24.45
2022-11-02T20:36:35.578Z,20.58
2022-11-02T20:39:05.826Z,20.83
2022-11-02T20:41:34.312Z,25.63
2022-11-02T20:44:02.917Z,16.67
2022-11-02T20:46:37.558Z,19.48
2022-11-02T20:49:20.232Z,17.70
2022-11-02T20:51:52.010Z,23.30
2022-11-02T20:54:21.107Z,18.48
2022-11-02T20:56:50.590Z,18.42
2022-11-02T20:59:19.543Z,17.88
2022-11-02T21:01:48.359Z,25.42
2022-11-02T21:04:20.908Z,25.13
2022-11-02T21:06:49.916Z,22.90
2022-11-02T21:09:18.039Z,27.63
2022-11-02T21:12:05.152Z,22.75
2022-11-02T21:14:33.955Z,21.17
2022-11-02T21:17:03.338Z,23.05
2022-11-02T21:19:31.735Z,20.50
2022-11-02T21:22:00.797Z,20.63
2022-11-02T21:24:30.332Z,18.95
2022-11-02T21:26:58.921Z,18.83
2022-11-02T21:29:27.146Z,21.30
2022-11-02T21:31:57.804Z,20.08
2022-11-02T21:34:25.474Z,19.00
2022-11-02T21:36:53.008Z,18.85
2022-11-02T21:39:20.357Z,20.73
2022-11-02T21:41:48.467Z,21.60
2022-11-02T21:44:15.912Z,23.27
2022-11-02T21:46:43.241Z,19.80
2022-11-02T21:49:10.863Z,18.83
2022-11-02T21:51:38.551Z,20.63
2022-11-02T21:54:05.922Z,27.60
2022-11-02T21:56:35.865Z,19.05
2022-11-02T21:59:03.317Z,21.95
2022-11-02T22:01:50.507Z,23.52
2022-11-02T22:04:25.249Z,25.40
2022-11-02T22:06:53.151Z,22.73
2022-11-02T22:09:20.787Z,20.98
2022-11-02T22:11:48.269Z,19.02
2022-11-02T22:14:15.653Z,23.25
2022-11-02T22:16:43.675Z,23.45
2022-11-02T22:19:13.360Z,20.33
2022-11-02T22:21:42.982Z,22.35
2022-11-02T22:24:11.142Z,25.27
2022-11-02T22:26:39.326Z,17.15
2022-11-02T22:29:07.019Z,22.63
2022-11-02T22:31:38.600Z,20.98
2022-11-02T22:34:08.234Z,18.10
2022-11-02T22:36:42.881Z,18.20
2022-11-02T22:39:31.432Z,19.65
2022-11-02T22:42:04.505Z,19.83
2022-11-02T22:44:38.388Z,21.48
2022-11-02T22:47:06.066Z,24.38
2022-11-02T22:49:39.605Z,23.77
2022-11-02T22:52:07.235Z,22.00
2022-11-02T22:54:41.126Z,19.92
2022-11-02T22:57:13.303Z,21.90
2022-11-02T22:59:40.524Z,18.83
2022-11-02T23:02:07.931Z,24.75
2022-11-02T23:04:35.271Z,19.83
2022-11-02T23:07:02.571Z,27.33
2022-11-02T23:09:29.988Z,26.40
2022-11-02T23:12:06.762Z,27.20
2022-11-02T23:14:34.074Z,26.70
2022-11-02T23:17:01.352Z,26.70
2022-11-02T23:19:33.024Z,25.00
2022-11-02T23:22:29.181Z,22.27
2022-11-02T23:25:20.056Z,25.83
2022-11-02T23:28:13.053Z,24.23
2022-11-02T23:30:59.936Z,19.63
2022-11-02T23:33:32.249Z,26.60
2022-11-02T23:36:12.588Z,25.77
2022-11-02T23:39:06.570Z,33.70
2022-11-02T23:41:36.781Z,30.00
2022-11-02T23:44:18.879Z,24.05
2022-11-02T23:46:50.639Z,25.25
2022-11-02T23:49:18.573Z,23.63
2022-11-02T23:52:04.531Z,24.63
2022-11-02T23:54:50.538Z,23.38
2022-11-02T23:57:18.671Z,21.98
2022-11-02T23:59:45.900Z,23.58
